Time;durP1;ratioP1;P1;durP2;ratioP2;P2;SDS_P1;SDS_P2;PMS_P1;PMS_P2;Temp;Humidity;BMP_temperature;BMP_pressure;BME280_temperature;BME280_humidity;BME280_pressure;Samples;Min_cycle;Max_cycle;Signal;HPM_P1;HPM_P2
2021/09/17 00:00:28;;;;;;;20.57;10.55;;;;;;;14.70;56.66;99501.62;1740684;82;21030;-69
2021/09/17 00:02:52;;;;;;;24.50;10.45;;;;;;;14.69;56.72;99505.53;1727706;81;21397;-71
2021/09/17 00:05:20;;;;;;;23.65;10.95;;;;;;;14.68;56.76;99501.16;1726314;81;21003;-71
2021/09/17 00:07:47;;;;;;;20.62;11.53;;;;;;;14.68;56.85;99499.77;1728089;81;21390;-70
2021/09/17 00:10:14;;;;;;;25.75;10.55;;;;;;;14.68;56.89;99499.20;1707347;82;21970;-71
2021/09/17 00:12:42;;;;;;;23.55;11.33;;;;;;;14.68;56.84;99498.38;1756435;81;20984;-70
2021/09/17 00:15:10;;;;;;;21.87;10.78;;;;;;;14.68;56.75;99499.20;1756055;81;20997;-71
2021/09/17 00:17:38;;;;;;;22.82;10.68;;;;;;;14.69;56.76;99502.77;1756150;81;21507;-71
2021/09/17 00:20:07;;;;;;;21.02;11.08;;;;;;;14.68;56.77;99490.88;1756727;81;21071;-71
2021/09/17 00:22:36;;;;;;;19.62;9.85;;;;;;;14.68;56.90;99491.45;1756774;81;21012;-70
2021/09/17 00:25:05;;;;;;;21.93;10.78;;;;;;;14.68;57.03;99485.34;1755847;81;21060;-73
2021/09/17 00:27:35;;;;;;;19.80;10.23;;;;;;;14.68;57.05;99487.30;1756176;80;21047;-72
2021/09/17 00:30:03;;;;;;;21.85;11.08;;;;;;;14.71;56.86;99486.59;1717120;81;21051;-70
2021/09/17 00:32:31;;;;;;;20.68;9.50;;;;;;;14.72;56.77;99481.29;1752753;81;21528;-72
2021/09/17 00:35:00;;;;;;;22.82;11.55;;;;;;;14.71;56.89;99476.88;1756003;81;21215;-73
2021/09/17 00:37:29;;;;;;;20.35;11.63;;;;;;;14.71;56.80;99478.27;1756356;81;21059;-71
2021/09/17 00:39:58;;;;;;;19.62;9.80;;;;;;;14.73;56.79;99473.19;1756043;81;21075;-71
2021/09/17 00:42:24;;;;;;;17.98;9.75;;;;;;;14.73;56.91;99466.26;1733862;81;21387;-71
2021/09/17 00:44:53;;;;;;;18.15;9.88;;;;;;;14.73;56.77;99463.48;1733194;81;21508;-71
2021/09/17 00:47:20;;;;;;;16.93;9.40;;;;;;;14.74;56.56;99460.92;1756184;81;21029;-71
2021/09/17 00:49:47;;;;;;;23.05;9.63;;;;;;;14.75;56.46;99465.34;1756521;81;21544;-73
2021/09/17 00:52:16;;;;;;;14.80;8.70;;;;;;;14.77;56.20;99460.82;1756438;81;20972;-71
2021/09/17 00:54:47;;;;;;;18.87;8.98;;;;;;;14.79;55.99;99460.69;1708410;82;21076;-70
2021/09/17 00:57:16;;;;;;;17.20;9.63;;;;;;;14.80;55.77;99460.97;1732459;81;21024;-71
2021/09/17 00:59:42;;;;;;;22.15;9.93;;;;;;;14.81;55.74;99457.02;1756554;81;21522;-72
2021/09/17 01:02:12;;;;;;;18.57;9.88;;;;;;;14.84;55.68;99450.77;1724613;81;21014;-71
2021/09/17 01:04:39;;;;;;;17.55;8.85;;;;;;;14.85;55.56;99451.59;1729751;81;21017;-71
2021/09/17 01:07:09;;;;;;;18.67;8.85;;;;;;;14.84;55.45;99438.29;1729874;81;21101;-71
2021/09/17 01:09:41;;;;;;;19.37;9.85;;;;;;;14.87;55.46;99441.52;1719211;81;21019;-71
2021/09/17 01:12:08;;;;;;;17.02;9.18;;;;;;;14.90;55.21;99442.20;1736422;81;21207;-71
2021/09/17 01:14:35;;;;;;;15.00;8.63;;;;;;;14.90;55.20;99436.09;1741483;81;21035;-70
2021/09/17 01:17:03;;;;;;;18.00;8.98;;;;;;;14.91;55.05;99430.75;1740109;81;20997;-71
2021/09/17 01:19:35;;;;;;;15.95;9.40;;;;;;;14.92;54.92;99423.25;1759971;81;21015;-72
2021/09/17 01:22:08;;;;;;;15.63;8.10;;;;;;;14.93;54.86;99427.05;1737255;81;21024;-70
2021/09/17 01:24:38;;;;;;;15.45;8.65;;;;;;;14.93;54.93;99429.83;1768175;80;21036;-71
2021/09/17 01:27:05;;;;;;;17.07;9.18;;;;;;;14.93;55.02;99421.51;1770455;80;21620;-73
2021/09/17 01:29:31;;;;;;;20.37;8.65;;;;;;;14.94;55.11;99421.72;1760597;81;21089;-71
2021/09/17 01:31:59;;;;;;;16.23;8.35;;;;;;;14.96;55.18;99420.02;1765944;80;21084;-70
2021/09/17 01:34:26;;;;;;;17.45;8.33;;;;;;;14.96;55.04;99420.02;1767904;80;21064;-72
2021/09/17 01:36:52;;;;;;;15.40;8.35;;;;;;;14.98;54.97;99419.66;1738976;81;21526;-72
2021/09/17 01:39:20;;;;;;;16.15;8.30;;;;;;;14.97;54.99;99410.52;1765177;81;20999;-71
2021/09/17 01:41:48;;;;;;;13.75;7.70;;;;;;;14.99;54.85;99403.23;1721708;81;21094;-72
2021/09/17 01:44:16;;;;;;;14.10;7.37;;;;;;;14.99;54.78;99402.66;1767658;80;21511;-71
2021/09/17 01:46:46;;;;;;;14.25;7.42;;;;;;;14.99;54.48;99399.88;1762834;80;20986;-71
2021/09/17 01:49:12;;;;;;;20.55;8.33;;;;;;;15.00;54.45;99397.33;1745595;80;21083;-71
2021/09/17 01:51:39;;;;;;;12.90;7.67;;;;;;;15.01;54.42;99391.20;1762900;80;21036;-72
2021/09/17 01:54:07;;;;;;;16.17;7.62;;;;;;;15.02;54.36;99390.84;1762535;80;21086;-69
2021/09/17 01:56:34;;;;;;;18.17;7.20;;;;;;;15.04;54.38;99389.11;1740279;81;21074;-71
2021/09/17 01:59:04;;;;;;;23.42;7.70;;;;;;;15.04;54.33;99384.37;1764201;80;21016;-71
2021/09/17 02:01:30;;;;;;;11.63;7.22;;;;;;;15.05;54.43;99381.81;1763664;80;21113;-71
2021/09/17 02:03:58;;;;;;;15.43;7.15;;;;;;;15.06;54.28;99380.64;1763615;80;21293;-72
2021/09/17 02:06:25;;;;;;;12.03;7.45;;;;;;;15.07;54.08;99378.11;1742123;81;21016;-72
2021/09/17 02:08:53;;;;;;;12.95;6.08;;;;;;;15.08;53.96;99375.55;1761445;80;20980;-72
2021/09/17 02:11:19;;;;;;;13.50;7.08;;;;;;;15.11;53.72;99371.84;1732647;81;21097;-73
2021/09/17 02:13:48;;;;;;;15.20;7.08;;;;;;;15.11;53.82;99369.89;1756795;81;22362;-71
2021/09/17 02:16:15;;;;;;;11.50;6.12;;;;;;;15.11;53.75;99365.73;1718956;82;21037;-72
2021/09/17 02:18:45;;;;;;;11.60;6.95;;;;;;;15.13;53.74;99366.16;1745414;82;21045;-71
2021/09/17 02:21:20;;;;;;;14.10;6.72;;;;;;;15.14;53.64;99360.03;1739874;82;21532;-72
2021/09/17 02:23:43;;;;;;;14.53;7.12;;;;;;;15.15;53.72;99357.50;1745721;82;20982;-70
2021/09/17 02:26:10;;;;;;;15.45;6.33;;;;;;;15.14;53.72;99348.94;1745459;82;21055;-72
2021/09/17 02:28:36;;;;;;;12.98;5.90;;;;;;;15.14;53.75;99351.71;1745209;80;21086;-73
2021/09/17 02:31:06;;;;;;;11.15;6.67;;;;;;;15.14;53.87;99346.98;1721887;82;21004;-71
2021/09/17 02:33:33;;;;;;;12.00;6.15;;;;;;;15.13;53.85;99348.13;1744888;82;21603;-72
2021/09/17 02:35:59;;;;;;;10.95;6.05;;;;;;;15.14;53.92;99348.94;1745200;81;21539;-71
2021/09/17 02:38:26;;;;;;;11.83;6.25;;;;;;;15.12;53.89;99346.52;1745097;82;21878;-71
2021/09/17 02:40:54;;;;;;;9.90;5.55;;;;;;;15.12;54.00;99346.52;1745652;82;21041;-71
2021/09/17 02:43:23;;;;;;;11.97;7.08;;;;;;;15.11;54.09;99341.33;1745307;82;21509;-71
2021/09/17 02:45:53;;;;;;;15.35;6.65;;;;;;;15.10;54.22;99346.06;1744187;82;21072;-72
2021/09/17 02:48:21;;;;;;;10.98;6.03;;;;;;;15.09;54.19;99334.18;1741006;82;21049;-72
2021/09/17 02:50:47;;;;;;;10.35;5.55;;;;;;;15.09;54.03;99334.18;1745348;82;21516;-70
2021/09/17 02:53:14;;;;;;;13.45;5.92;;;;;;;15.11;53.93;99324.68;1717336;82;20992;-70
2021/09/17 02:55:41;;;;;;;10.15;5.67;;;;;;;15.10;53.83;99314.16;1745264;82;21052;-72
2021/09/17 02:58:08;;;;;;;13.15;5.25;;;;;;;15.10;53.81;99315.54;1745911;81;21605;-71
2021/09/17 03:00:38;;;;;;;13.78;5.53;;;;;;;15.10;53.75;99303.05;1717506;82;21098;-72
2021/09/17 03:03:04;;;;;;;9.50;5.22;;;;;;;15.11;53.66;99307.46;1745596;81;21492;-71
2021/09/17 03:05:30;;;;;;;9.80;5.28;;;;;;;15.11;53.69;99304.69;1745300;82;21006;-73
2021/09/17 03:07:57;;;;;;;13.53;5.97;;;;;;;15.13;53.89;99302.94;1745088;82;21024;-72
2021/09/17 03:10:25;;;;;;;11.57;5.17;;;;;;;15.13;53.87;99310.66;1708072;82;21027;-71
2021/09/17 03:12:53;;;;;;;10.13;5.42;;;;;;;15.13;53.89;99302.94;1735720;82;21105;-72
2021/09/17 03:15:22;;;;;;;12.10;6.25;;;;;;;15.14;54.04;99302.58;1722400;82;21616;-71
2021/09/17 03:17:50;;;;;;;10.18;5.97;;;;;;;15.15;53.92;99303.40;1758365;80;21013;-71
2021/09/17 03:20:20;;;;;;;9.68;5.03;;;;;;;15.16;54.00;99303.61;1722905;82;21016;-72
2021/09/17 03:22:49;;;;;;;9.88;5.22;;;;;;;15.16;53.99;99298.06;1762826;81;21022;-72
2021/09/17 03:25:16;;;;;;;9.98;5.55;;;;;;;15.17;53.79;99299.66;1726485;81;21019;-70
2021/09/17 03:27:42;;;;;;;11.93;5.75;;;;;;;15.18;53.68;99297.13;1736790;81;21061;-71
2021/09/17 03:30:10;;;;;;;14.75;5.90;;;;;;;15.19;53.78;99293.17;1723878;81;21057;-72
2021/09/17 03:32:41;;;;;;;12.60;5.70;;;;;;;15.19;53.83;99297.34;1740268;82;21031;-71
2021/09/17 03:35:10;;;;;;;9.05;5.55;;;;;;;15.20;53.71;99297.55;1747102;81;21006;-72
2021/09/17 03:37:37;;;;;;;15.95;5.53;;;;;;;15.20;54.00;99299.76;1729200;81;21036;-71
2021/09/17 03:40:05;;;;;;;15.65;6.60;;;;;;;15.21;54.15;99293.63;1741769;81;21115;-71
2021/09/17 03:42:33;;;;;;;13.58;5.80;;;;;;;15.21;54.46;99285.31;1763458;81;21017;-71
2021/09/17 03:45:03;;;;;;;10.30;6.08;;;;;;;15.20;54.46;99284.49;1738835;82;21038;-70
2021/09/17 03:47:30;;;;;;;14.58;6.28;;;;;;;15.21;54.31;99283.34;1738688;81;21069;-73
2021/09/17 03:49:57;;;;;;;18.07;6.45;;;;;;;15.21;54.25;99289.47;1738481;81;47028;-70
2021/09/17 03:52:24;;;;;;;12.15;7.05;;;;;;;15.21;54.25;99276.98;1744954;81;22115;-72
2021/09/17 03:54:52;;;;;;;18.12;6.70;;;;;;;15.21;54.12;99275.59;1747555;81;21045;-71
2021/09/17 03:57:19;;;;;;;21.40;7.33;;;;;;;15.20;54.29;99273.39;1725535;81;21007;-71
2021/09/17 03:59:48;;;;;;;23.15;7.40;;;;;;;15.20;54.35;99267.03;1747865;81;21087;-71
2021/09/17 04:02:16;;;;;;;16.10;7.80;;;;;;;15.19;54.49;99270.41;1748804;81;21064;-70
2021/09/17 04:04:42;;;;;;;10.10;6.78;;;;;;;15.19;54.66;99267.63;1742068;81;21131;-71
2021/09/17 04:07:11;;;;;;;12.68;7.05;;;;;;;15.18;54.73;99261.05;1700357;83;21081;-71
2021/09/17 04:09:37;;;;;;;16.48;8.35;;;;;;;15.19;54.45;99255.72;1760413;80;21488;-71
2021/09/17 04:12:08;;;;;;;19.15;7.37;;;;;;;15.17;54.54;99252.48;1769234;80;21022;-72
2021/09/17 04:14:38;;;;;;;14.73;6.17;;;;;;;15.18;54.38;99259.67;1771878;80;21047;-71
2021/09/17 04:17:07;;;;;;;10.80;6.03;;;;;;;15.18;54.45;99247.97;1763554;80;21052;-71
2021/09/17 04:19:36;;;;;;;12.07;6.45;;;;;;;15.18;54.66;99247.18;1771007;80;21078;-70
2021/09/17 04:22:07;;;;;;;17.02;6.42;;;;;;;15.18;54.80;99249.36;1733569;81;21027;-71
2021/09/17 04:24:37;;;;;;;14.83;6.00;;;;;;;15.19;54.65;99247.39;1748921;80;20980;-71
2021/09/17 04:27:04;;;;;;;25.52;7.70;;;;;;;15.19;54.67;99241.84;1770202;80;21076;-71
2021/09/17 04:29:31;;;;;;;13.00;6.25;;;;;;;15.16;54.70;99238.41;1733579;82;21126;-72
2021/09/17 04:32:02;;;;;;;11.10;6.30;;;;;;;15.16;54.72;99236.44;1749591;80;21050;-71
2021/09/17 04:34:32;;;;;;;12.28;5.85;;;;;;;15.16;54.81;99237.02;1771353;80;21033;-70
2021/09/17 04:37:03;;;;;;;17.20;7.03;;;;;;;15.14;55.04;99236.56;1739958;81;21007;-70
2021/09/17 04:39:33;;;;;;;15.75;6.83;;;;;;;15.13;55.19;99238.52;1743318;81;21055;-70
2021/09/17 04:42:05;;;;;;;8.70;5.72;;;;;;;15.12;55.16;99235.53;1763616;80;21485;-70
2021/09/17 04:44:31;;;;;;;14.23;6.55;;;;;;;15.12;55.27;99236.11;1722613;81;21037;-69
2021/09/17 04:46:58;;;;;;;11.83;6.47;;;;;;;15.12;55.34;99232.77;1736102;81;21198;-70
2021/09/17 04:49:27;;;;;;;13.78;6.22;;;;;;;15.12;55.57;99223.63;1755912;81;21097;-70
2021/09/17 04:51:56;;;;;;;13.98;6.33;;;;;;;15.12;55.45;99229.98;1754992;80;21026;-71
2021/09/17 04:54:26;;;;;;;15.35;6.17;;;;;;;15.13;55.60;99226.03;1727370;82;21965;-69
2021/09/17 04:56:54;;;;;;;14.55;6.65;;;;;;;15.15;55.46;99235.42;1762148;80;21492;-71
2021/09/17 04:59:24;;;;;;;11.65;6.05;;;;;;;15.16;55.36;99232.85;1764296;81;20996;-70
2021/09/17 05:01:51;;;;;;;19.42;6.22;;;;;;;15.18;55.49;99231.92;1763229;80;21009;-70
2021/09/17 05:04:21;;;;;;;14.18;5.75;;;;;;;15.19;55.48;99228.78;1764503;80;21055;-71
2021/09/17 05:06:47;;;;;;;14.38;6.42;;;;;;;15.22;55.50;99228.63;1763780;80;21042;-71
2021/09/17 05:09:16;;;;;;;16.23;6.67;;;;;;;15.27;55.21;99229.75;1739838;81;21557;-70
2021/09/17 05:11:47;;;;;;;14.10;6.40;;;;;;;15.31;54.91;99226.50;1764467;80;21003;-70
2021/09/17 05:14:16;;;;;;;22.55;6.03;;;;;;;15.36;55.03;99225.41;1764171;80;20991;-69
2021/09/17 05:16:46;;;;;;;11.55;6.25;;;;;;;15.41;55.25;99225.70;1761198;81;21061;-71
2021/09/17 05:19:13;;;;;;;11.97;5.70;;;;;;;15.44;55.30;99216.08;1719851;82;21087;-72
2021/09/17 05:21:40;;;;;;;19.07;5.70;;;;;;;15.49;54.99;99212.81;1764518;80;21011;-71
2021/09/17 05:24:06;;;;;;;14.87;5.97;;;;;;;15.53;54.92;99213.11;1763011;81;21060;-70
2021/09/17 05:26:34;;;;;;;10.00;5.47;;;;;;;15.57;54.84;99213.98;1739100;81;20959;-70
2021/09/17 05:29:02;;;;;;;10.60;5.33;;;;;;;15.63;54.89;99202.60;1764231;80;21583;-70
2021/09/17 05:31:31;;;;;;;12.78;5.87;;;;;;;15.68;55.09;99202.31;1737603;81;21639;-71
2021/09/17 05:34:01;;;;;;;12.60;6.53;;;;;;;15.73;54.92;99202.03;1763222;81;21058;-70
2021/09/17 05:36:27;;;;;;;13.68;5.78;;;;;;;15.79;54.81;99197.02;1763669;81;21008;-71
2021/09/17 05:38:55;;;;;;;15.10;6.35;;;;;;;15.82;54.79;99192.11;1731955;81;21000;-71
2021/09/17 05:41:21;;;;;;;11.90;5.65;;;;;;;15.88;54.82;99190.64;1764502;81;21078;-72
2021/09/17 05:43:50;;;;;;;12.28;5.75;;;;;;;15.93;54.89;99186.19;1732293;82;21521;-69
2021/09/17 05:46:19;;;;;;;12.90;6.35;;;;;;;16.00;54.95;99186.17;1770201;80;21047;-72
2021/09/17 05:48:48;;;;;;;14.35;6.35;;;;;;;16.09;55.25;99181.19;1734703;81;21034;-69
2021/09/17 05:51:17;;;;;;;12.55;6.50;;;;;;;16.21;55.25;99181.62;1754352;81;21506;-71
2021/09/17 05:53:45;;;;;;;16.40;6.05;;;;;;;16.35;55.16;99183.06;1720869;82;21059;-71
2021/09/17 05:56:15;;;;;;;15.80;6.35;;;;;;;16.50;55.24;99179.97;1745549;82;21143;-71
2021/09/17 05:58:48;;;;;;;21.25;5.72;;;;;;;16.64;54.86;99170.51;1744246;82;21077;-70
2021/09/17 06:01:16;;;;;;;17.15;6.12;;;;;;;16.79;54.81;99168.77;1718613;82;21474;-71
2021/09/17 06:03:46;;;;;;;22.05;5.75;;;;;;;16.92;54.87;99168.59;1718525;82;21071;-70
2021/09/17 06:06:12;;;;;;;9.75;5.10;;;;;;;16.98;54.87;99162.11;1745934;82;21026;-69
2021/09/17 06:08:40;;;;;;;8.38;5.10;;;;;;;17.00;55.00;99161.97;1718610;82;21777;-72
2021/09/17 06:11:06;;;;;;;14.47;5.45;;;;;;;17.03;55.21;99162.61;1735105;82;21042;-69
2021/09/17 06:13:36;;;;;;;20.68;6.08;;;;;;;17.06;55.38;99158.88;1740596;82;21025;-70
2021/09/17 06:16:03;;;;;;;11.97;5.65;;;;;;;17.08;55.67;99155.11;1745195;82;21049;-69
2021/09/17 06:18:33;;;;;;;17.92;6.37;;;;;;;17.10;55.78;99152.79;1742917;82;21112;-68
2021/09/17 06:21:01;;;;;;;12.82;6.00;;;;;;;17.13;56.30;99143.69;1712912;82;20940;-69
2021/09/17 06:23:29;;;;;;;17.65;5.67;;;;;;;17.19;56.53;99149.75;1741971;82;21108;-71
2021/09/17 06:25:58;;;;;;;13.35;5.83;;;;;;;17.27;56.80;99144.50;1743944;82;21552;-70
2021/09/17 06:28:27;;;;;;;13.28;5.72;;;;;;;17.32;56.65;99141.39;1744431;82;21071;-70
2021/09/17 06:30:55;;;;;;;14.45;6.47;;;;;;;17.35;56.73;99138.46;1743522;80;21108;-71
2021/09/17 06:33:23;;;;;;;15.18;6.17;;;;;;;17.36;56.67;99136.69;1744870;82;21113;-70
2021/09/17 06:35:51;;;;;;;14.93;6.42;;;;;;;17.39;57.01;99142.09;1742026;82;21057;-72
2021/09/17 06:38:18;;;;;;;15.55;6.03;;;;;;;17.37;57.13;99138.29;1744857;82;21022;-70
2021/09/17 06:40:44;;;;;;;10.70;5.50;;;;;;;17.37;57.35;99140.26;1717334;82;21047;-70
2021/09/17 06:43:14;;;;;;;17.87;6.22;;;;;;;17.37;57.61;99142.46;1744728;82;21522;-69
2021/09/17 06:45:40;;;;;;;14.07;6.33;;;;;;;17.40;57.63;99133.94;1744613;82;21166;-70
2021/09/17 06:48:08;;;;;;;14.58;6.28;;;;;;;17.41;57.74;99138.34;1732801;82;20985;-73
2021/09/17 06:50:37;;;;;;;17.80;7.05;;;;;;;17.43;57.82;99134.59;1748649;81;21088;-71
2021/09/17 06:53:03;;;;;;;11.10;6.42;;;;;;;17.47;58.15;99131.87;1711945;82;21011;-70
2021/09/17 06:55:30;;;;;;;11.70;5.95;;;;;;;17.51;58.18;99129.34;1745499;82;21038;-71
2021/09/17 06:58:03;;;;;;;20.92;6.42;;;;;;;17.54;58.11;99133.95;1746683;82;21141;-74
2021/09/17 07:00:39;;;;;;;17.85;6.10;;;;;;;17.55;58.17;99138.33;1750571;81;20989;-72
2021/09/17 07:03:05;;;;;;;14.43;6.47;;;;;;;17.56;58.27;99133.77;1745333;82;21059;-72
2021/09/17 07:05:34;;;;;;;27.42;10.43;;;;;;;17.62;58.49;99129.46;1745093;82;21008;-72
2021/09/17 07:08:06;;;;;;;30.57;11.48;;;;;;;17.64;58.29;99131.87;1745055;82;21062;-71
2021/09/17 07:10:35;;;;;;;31.10;9.50;;;;;;;17.66;58.39;99125.34;1746119;81;21900;-72
2021/09/17 07:13:03;;;;;;;25.80;8.38;;;;;;;17.68;58.44;99122.98;1748888;82;21064;-72
2021/09/17 07:15:31;;;;;;;15.70;6.92;;;;;;;17.70;58.45;99127.59;1744482;82;21045;-71
2021/09/17 07:18:04;;;;;;;14.50;6.90;;;;;;;17.70;58.39;99124.80;1748328;82;21049;-73
2021/09/17 07:20:34;;;;;;;18.65;6.60;;;;;;;17.74;58.59;99119.28;1723263;82;21622;-72
2021/09/17 07:23:03;;;;;;;31.65;6.75;;;;;;;17.77;58.73;99121.30;1746149;82;21188;-73
2021/09/17 07:25:32;;;;;;;19.65;6.80;;;;;;;17.81;58.78;99115.78;1750850;82;21013;-72
2021/09/17 07:28:01;;;;;;;14.40;6.17;;;;;;;17.85;58.82;99115.22;1748491;80;21065;-72
2021/09/17 07:30:27;;;;;;;16.35;6.50;;;;;;;17.89;58.87;99114.68;1723266;82;21016;-73
2021/09/17 07:32:56;;;;;;;14.75;6.87;;;;;;;17.92;58.93;99116.70;1739249;82;21037;-74
2021/09/17 07:35:22;;;;;;;11.75;6.78;;;;;;;17.94;59.08;99114.34;1748164;82;21165;-71
2021/09/17 07:37:50;;;;;;;17.62;6.92;;;;;;;17.97;59.29;99112.77;1722702;82;21005;-73
2021/09/17 07:40:20;;;;;;;18.15;6.53;;;;;;;17.98;59.38;99108.20;1748076;80;21069;-73
2021/09/17 07:42:48;;;;;;;15.20;6.70;;;;;;;18.00;59.63;99103.05;1723276;82;21043;-73
2021/09/17 07:45:21;;;;;;;20.72;6.72;;;;;;;18.00;59.64;99104.45;1748632;82;21059;-70
2021/09/17 07:47:51;;;;;;;17.62;6.97;;;;;;;18.00;59.72;99108.63;1748130;82;21042;-72
2021/09/17 07:50:17;;;;;;;27.02;7.35;;;;;;;18.00;60.10;99103.64;1722052;82;21019;-72
2021/09/17 07:52:47;;;;;;;12.88;6.17;;;;;;;17.99;60.34;99100.08;1747529;82;21010;-72
2021/09/17 07:55:14;;;;;;;16.48;6.67;;;;;;;18.01;60.52;99103.87;1746951;82;21035;-73
2021/09/17 07:57:48;;;;;;;13.72;5.87;;;;;;;18.02;60.88;99095.70;1747329;82;21554;-71
2021/09/17 08:00:21;;;;;;;19.90;6.55;;;;;;;18.06;61.00;99091.56;1747823;82;21514;-70
2021/09/17 08:02:47;;;;;;;16.50;6.10;;;;;;;18.08;61.10;99094.17;1715937;82;22480;-74
2021/09/17 08:05:15;;;;;;;11.90;6.42;;;;;;;18.10;61.28;99092.42;1741858;82;21014;-71
2021/09/17 08:07:45;;;;;;;13.08;5.87;;;;;;;18.10;61.36;99088.23;1746994;82;21406;-70
2021/09/17 08:10:12;;;;;;;13.35;6.62;;;;;;;18.11;61.51;99082.86;1722414;82;21067;-71
2021/09/17 08:12:39;;;;;;;14.15;6.10;;;;;;;18.12;61.62;99082.48;1747658;82;21256;-72
2021/09/17 08:15:11;;;;;;;18.12;6.85;;;;;;;18.12;61.55;99076.09;1748576;82;21044;-71
2021/09/17 08:17:41;;;;;;;18.15;7.03;;;;;;;18.12;61.79;99081.08;1745731;82;21448;-71
2021/09/17 08:20:13;;;;;;;14.45;7.08;;;;;;;18.11;61.98;99076.70;1748324;82;21052;-69
2021/09/17 08:22:41;;;;;;;20.50;7.25;;;;;;;18.12;62.20;99072.72;1748799;82;21033;-70
2021/09/17 08:25:10;;;;;;;19.98;7.50;;;;;;;18.15;62.25;99077.36;1748632;82;21627;-71
2021/09/17 08:27:39;;;;;;;12.35;7.40;;;;;;;18.17;62.50;99068.03;1748269;80;21060;-72
2021/09/17 08:30:07;;;;;;;17.00;7.03;;;;;;;18.20;62.52;99068.04;1748554;82;20974;-71
2021/09/17 08:32:38;;;;;;;14.53;7.72;;;;;;;18.24;62.69;99068.89;1738732;82;21006;-72
2021/09/17 08:35:09;;;;;;;15.65;7.78;;;;;;;18.29;62.73;99061.38;1748444;82;21021;-70
2021/09/17 08:37:37;;;;;;;13.45;6.87;;;;;;;18.31;62.67;99063.97;1743101;82;21088;-71
2021/09/17 08:40:05;;;;;;;13.68;6.33;;;;;;;18.34;62.76;99060.41;1748497;82;21546;-72
2021/09/17 08:42:35;;;;;;;17.85;7.25;;;;;;;18.36;62.91;99055.84;1746311;82;21485;-74
2021/09/17 08:45:07;;;;;;;16.35;8.20;;;;;;;18.39;62.94;99051.50;1719176;82;21523;-72
2021/09/17 08:47:37;;;;;;;25.10;8.80;;;;;;;18.39;63.05;99055.06;1722771;82;21055;-70
2021/09/17 08:50:06;;;;;;;22.95;8.88;;;;;;;18.42;63.19;99047.94;1748385;82;21546;-73
2021/09/17 08:52:44;;;;;;;17.60;7.92;;;;;;;18.45;63.24;99052.15;1748677;82;21045;-75
2021/09/17 08:55:11;;;;;;;18.45;7.87;;;;;;;18.49;63.18;99048.78;1748472;82;21124;-70
2021/09/17 08:57:38;;;;;;;17.05;8.00;;;;;;;18.54;63.51;99055.20;1742845;82;21037;-72
2021/09/17 09:00:13;;;;;;;29.10;8.08;;;;;;;18.58;63.46;99051.25;1723003;82;21078;-73
2021/09/17 09:02:45;;;;;;;15.00;8.68;;;;;;;18.64;63.43;99042.52;1732276;82;21992;-72
2021/09/17 09:05:13;;;;;;;13.98;6.75;;;;;;;18.69;63.57;99046.34;1748611;82;21063;-72
2021/09/17 09:07:43;;;;;;;21.87;7.20;;;;;;;18.72;63.52;99033.82;1748625;82;21039;-71
2021/09/17 09:10:15;;;;;;;16.65;7.28;;;;;;;18.77;63.62;99034.63;1747413;81;21780;-72
2021/09/17 09:12:53;;;;;;;14.78;7.53;;;;;;;18.81;63.50;99030.70;1709548;82;21003;-73
2021/09/17 09:15:26;;;;;;;14.43;7.33;;;;;;;18.85;63.69;99026.54;1704331;82;21009;-72
2021/09/17 09:17:58;;;;;;;16.12;7.30;;;;;;;18.90;63.98;99023.36;1740933;82;21186;-72
2021/09/17 09:20:36;;;;;;;21.57;7.77;;;;;;;18.93;64.01;99019.00;1740932;82;21023;-73
2021/09/17 09:23:12;;;;;;;22.37;7.85;;;;;;;18.96;64.10;99020.42;1737155;82;21060;-71
2021/09/17 09:26:08;;;;;;;29.87;9.43;;;;;;;19.00;64.19;99018.23;1741100;82;21066;-72
2021/09/17 09:28:43;;;;;;;;;;;;;;;19.05;64.50;99016.48;1714209;82;21103;-72
2021/09/17 09:31:16;;;;;;;19.27;8.60;;;;;;;19.12;64.58;99014.34;1741637;82;20544;-72
2021/09/17 09:33:46;;;;;;;18.67;8.58;;;;;;;19.17;64.74;99006.41;1708188;82;21096;-74
2021/09/17 09:36:19;;;;;;;23.22;8.70;;;;;;;19.27;64.72;99001.25;1711403;82;21545;-73
2021/09/17 09:38:55;;;;;;;19.60;8.35;;;;;;;19.34;64.77;98994.31;1737860;82;21036;-73
2021/09/17 09:41:24;;;;;;;15.72;8.90;;;;;;;19.41;64.85;98997.72;1736759;81;21093;-71
2021/09/17 09:43:55;;;;;;;14.73;8.18;;;;;;;19.46;64.70;98991.14;1704174;81;21053;-73
2021/09/17 09:46:38;;;;;;;17.80;7.17;;;;;;;19.49;64.35;98988.17;1729856;81;21020;-74
2021/09/17 09:49:25;;;;;;;21.05;7.97;;;;;;;19.52;64.33;98989.36;1720474;82;21004;-74
2021/09/17 09:52:09;;;;;;;21.15;8.05;;;;;;;19.52;64.21;98990.17;1731539;81;21154;-74
2021/09/17 09:54:36;;;;;;;14.90;8.58;;;;;;;19.53;64.22;98983.38;1732986;81;21947;-74
2021/09/17 09:57:04;;;;;;;17.48;8.38;;;;;;;19.55;64.48;98978.83;1706405;82;21052;-70
2021/09/17 09:59:34;;;;;;;21.12;10.63;;;;;;;19.57;64.53;98980.60;1741558;82;21055;-75
2021/09/17 10:02:04;;;;;;;14.50;8.15;;;;;;;19.58;64.54;98981.60;1736546;82;21018;-74
2021/09/17 10:04:32;;;;;;;13.70;7.42;;;;;;;19.61;64.39;98973.63;1739907;82;21053;-75
2021/09/17 10:07:09;;;;;;;18.20;7.80;;;;;;;19.62;64.32;98969.66;1740620;82;21532;-75
2021/09/17 10:09:41;;;;;;;17.12;6.92;;;;;;;19.62;64.31;98974.63;1738766;82;21662;-74
2021/09/17 10:12:19;;;;;;;19.10;7.20;;;;;;;19.64;64.47;98970.04;1733958;82;21008;-74
2021/09/17 10:14:48;;;;;;;16.05;7.05;;;;;;;19.66;64.42;98964.27;1742064;82;21040;-75
2021/09/17 10:17:22;;;;;;;15.15;7.37;;;;;;;19.70;64.66;98959.48;1732664;82;21027;-73
2021/09/17 10:19:49;;;;;;;;;;;;;;;19.76;64.86;98958.50;1736898;82;21749;-71
2021/09/17 10:22:36;;;;;;;15.15;7.00;;;;;;;19.87;64.85;98957.72;1735098;81;20201;-74
2021/09/17 10:25:22;;;;;;;17.55;6.95;;;;;;;19.97;64.64;98961.71;1759795;80;21062;-71
2021/09/17 10:28:15;;;;;;;11.57;6.67;;;;;;;20.06;64.41;98963.56;1767108;80;21134;-71
2021/09/17 10:30:44;;;;;;;20.30;7.58;;;;;;;20.13;63.77;98966.95;1758318;80;21042;-72
2021/09/17 10:33:29;;;;;;;13.15;6.85;;;;;;;20.17;63.47;98967.73;1727949;81;21796;-73
2021/09/17 10:36:05;;;;;;;15.55;6.37;;;;;;;20.19;63.49;98970.35;1731208;82;21052;-72
2021/09/17 10:38:33;;;;;;;14.65;6.67;;;;;;;20.19;63.06;98961.96;1737649;82;21491;-75
2021/09/17 10:41:06;;;;;;;17.32;6.58;;;;;;;20.17;62.85;98955.97;1735176;82;21024;-73
2021/09/17 10:43:47;;;;;;;14.33;7.83;;;;;;;20.14;62.71;98956.77;1735603;82;21016;-72
2021/09/17 10:46:28;;;;;;;20.27;7.55;;;;;;;20.13;62.71;98960.75;1718945;81;21947;-72
2021/09/17 10:48:57;;;;;;;15.78;6.87;;;;;;;20.10;62.71;98957.36;1731664;82;21153;-73
2021/09/17 10:51:42;;;;;;;29.65;11.90;;;;;;;20.07;62.64;98962.35;1732569;82;21075;-69
2021/09/17 10:54:15;;;;;;;19.52;11.38;;;;;;;20.06;62.79;98956.58;1733236;82;21023;-72
2021/09/17 10:57:05;;;;;;;29.02;13.58;;;;;;;20.05;62.80;98958.56;1734204;82;21110;-73
2021/09/17 10:59:43;;;;;;;26.37;12.23;;;;;;;20.05;62.90;98948.77;1733595;82;21161;-73
2021/09/17 11:02:13;;;;;;;21.82;8.58;;;;;;;20.06;62.88;98944.77;1733895;82;21469;-72
2021/09/17 11:04:47;;;;;;;14.68;7.30;;;;;;;20.08;63.13;98941.57;1732590;82;21007;-72
2021/09/17 11:07:32;;;;;;;15.05;7.10;;;;;;;20.10;62.87;98936.98;1731961;82;21008;-72
2021/09/17 11:09:59;;;;;;;16.65;8.40;;;;;;;20.13;62.54;98933.41;1716619;82;21039;-70
2021/09/17 11:12:41;;;;;;;19.40;7.87;;;;;;;20.15;62.43;98937.39;1736447;81;22144;-70
2021/09/17 11:15:18;;;;;;;17.17;7.70;;;;;;;20.17;62.36;98939.78;1739877;82;21065;-70
2021/09/17 11:17:56;;;;;;;17.07;7.55;;;;;;;20.21;62.00;98934.19;1738948;82;21056;-70
2021/09/17 11:20:31;;;;;;;20.35;7.97;;;;;;;20.24;61.68;98929.19;1710879;82;21100;-75
2021/09/17 11:23:05;;;;;;;19.17;8.50;;;;;;;20.29;61.65;98930.19;1738639;82;21003;-71
2021/09/17 11:25:41;;;;;;;24.25;7.83;;;;;;;20.36;61.55;98918.99;1739614;82;21662;-71
2021/09/17 11:28:32;;;;;;;17.60;7.17;;;;;;;20.42;61.44;98912.41;1740154;82;21061;-71
2021/09/17 11:31:17;;;;;;;16.60;7.28;;;;;;;20.48;61.47;98914.17;1735030;82;21529;-71
2021/09/17 11:33:56;;;;;;;17.37;7.42;;;;;;;20.52;60.97;98910.16;1738016;82;21037;-74
2021/09/17 11:36:48;;;;;;;22.37;7.20;;;;;;;20.55;61.05;98909.97;1738888;81;21043;-71